createdAt,value
2024-05-09T00:01:49.403Z,39.24
2024-05-09T00:06:51.263Z,39.70
2024-05-09T00:11:53.262Z,39.95
2024-05-09T00:16:55.209Z,39.96
2024-05-09T00:21:57.054Z,39.54
2024-05-09T00:26:58.861Z,39.83
2024-05-09T00:32:00.846Z,39.96
2024-05-09T00:37:02.830Z,40.47
2024-05-09T00:42:04.939Z,40.85
2024-05-09T00:47:07.861Z,41.11
2024-05-09T00:52:10.494Z,41.61
2024-05-09T00:57:13.989Z,41.40
2024-05-09T01:02:16.308Z,40.96
2024-05-09T01:07:18.168Z,40.73
2024-05-09T01:12:20.169Z,40.77
2024-05-09T01:17:22.257Z,41.05
2024-05-09T01:22:27.380Z,41.58
2024-05-09T01:27:30.828Z,42.35
2024-05-09T01:32:32.761Z,42.36
2024-05-09T01:37:34.612Z,42.89
2024-05-09T01:42:36.669Z,42.94
2024-05-09T01:47:38.632Z,43.60
2024-05-09T01:52:40.654Z,43.39
2024-05-09T01:57:42.495Z,43.20
2024-05-09T02:02:45.766Z,44.30
2024-05-09T02:07:47.739Z,44.91
2024-05-09T02:12:49.599Z,44.91
2024-05-09T02:17:51.915Z,45.18
2024-05-09T02:22:54.087Z,45.52
2024-05-09T02:27:55.913Z,45.88
2024-05-09T02:32:57.893Z,46.23
2024-05-09T02:38:00.093Z,46.32
2024-05-09T02:43:01.990Z,46.83
2024-05-09T02:48:04.255Z,46.91
2024-05-09T02:53:10.906Z,46.51
2024-05-09T02:58:12.804Z,46.16
2024-05-09T03:03:15.760Z,46.25
2024-05-09T03:08:18.129Z,47.17
2024-05-09T03:13:20.105Z,47.43
2024-05-09T03:18:22.097Z,47.32
2024-05-09T03:23:24.041Z,47.33
2024-05-09T03:28:25.866Z,47.50
2024-05-09T03:33:27.856Z,47.79
2024-05-09T03:38:30.196Z,47.89
2024-05-09T03:43:32.007Z,48.09
2024-05-09T03:48:36.647Z,47.70
2024-05-09T03:53:38.579Z,47.49
2024-05-09T03:58:40.524Z,47.18
2024-05-09T04:03:42.489Z,46.90
2024-05-09T04:08:44.442Z,47.22
2024-05-09T04:13:46.381Z,47.50
2024-05-09T04:18:48.361Z,47.40
2024-05-09T04:23:52.962Z,47.57
2024-05-09T04:28:54.771Z,47.62
2024-05-09T04:33:56.978Z,47.57
2024-05-09T04:38:59.246Z,47.11
2024-05-09T04:44:01.265Z,47.29
2024-05-09T04:49:03.396Z,47.21
2024-05-09T04:54:05.573Z,47.38
2024-05-09T04:59:08.839Z,47.12
2024-05-09T05:04:11.134Z,46.85
2024-05-09T05:09:13.373Z,46.59
2024-05-09T05:14:15.503Z,46.33
2024-05-09T05:19:17.876Z,46.50
2024-05-09T05:24:19.812Z,46.37
2024-05-09T05:29:22.082Z,45.93
2024-05-09T05:34:24.037Z,45.64
2024-05-09T05:39:26.320Z,45.79
2024-05-09T05:44:28.316Z,45.51
2024-05-09T05:49:30.430Z,45.26
2024-05-09T05:54:32.388Z,45.16
2024-05-09T05:59:34.925Z,45.06
2024-05-09T06:04:37.014Z,44.78
2024-05-09T06:09:39.192Z,44.17
2024-05-09T06:14:41.585Z,43.76
2024-05-09T06:19:43.602Z,43.10
2024-05-09T06:24:46.185Z,42.49
2024-05-09T06:29:48.130Z,42.04
2024-05-09T06:34:50.225Z,41.66
2024-05-09T06:39:52.506Z,41.69
2024-05-09T06:44:54.852Z,41.11
2024-05-09T06:49:57.459Z,40.90
2024-05-09T06:54:59.613Z,40.88
2024-05-09T07:00:01.457Z,40.00
2024-05-09T07:05:03.559Z,39.82
2024-05-09T07:10:07.815Z,38.96
2024-05-09T07:15:12.281Z,38.66
2024-05-09T07:20:22.900Z,38.74
2024-05-09T07:25:30.062Z,38.40
2024-05-09T07:30:34.455Z,37.36
2024-05-09T07:35:37.157Z,36.08
2024-05-09T07:40:40.489Z,36.41
2024-05-09T07:45:51.071Z,36.42
2024-05-09T07:52:39.252Z,36.59
2024-05-09T07:56:19.725Z,36.08
2024-05-09T08:01:26.538Z,35.79
2024-05-09T08:06:29.009Z,35.53
2024-05-09T08:11:32.391Z,34.99
2024-05-09T08:16:34.254Z,35.03
2024-05-09T08:21:36.122Z,34.30
2024-05-09T08:26:38.052Z,33.83
2024-05-09T08:31:40.019Z,33.65
2024-05-09T08:36:42.464Z,33.49
2024-05-09T08:41:49.748Z,33.19
2024-05-09T08:46:52.200Z,33.19
2024-05-09T08:51:54.185Z,32.90
2024-05-09T08:56:58.089Z,32.48
2024-05-09T09:02:00.229Z,32.15
2024-05-09T09:07:03.687Z,31.94
2024-05-09T09:12:07.888Z,31.83
2024-05-09T09:17:16.364Z,31.32
2024-05-09T09:22:19.837Z,30.65
2024-05-09T09:27:22.353Z,29.54
2024-05-09T09:32:29.114Z,29.67
2024-05-09T09:37:31.237Z,30.22
2024-05-09T09:42:35.461Z,30.40
2024-05-09T09:47:40.180Z,30.35
2024-05-09T09:52:42.103Z,30.24
2024-05-09T09:57:48.907Z,30.36
2024-05-09T10:02:50.830Z,30.26
2024-05-09T10:07:53.505Z,30.16
2024-05-09T10:13:00.081Z,30.16
2024-05-09T10:18:06.661Z,29.84
2024-05-09T10:23:24.917Z,29.79
2024-05-09T10:28:28.040Z,30.22
2024-05-09T10:33:46.942Z,30.19
2024-05-09T10:43:51.920Z,30.08
2024-05-09T10:48:54.445Z,30.10
2024-05-09T10:53:59.075Z,29.36
2024-05-09T10:59:04.088Z,28.53
2024-05-09T11:04:06.126Z,28.83
2024-05-09T11:09:08.827Z,28.60
2024-05-09T11:14:13.923Z,28.50
2024-05-09T11:19:16.035Z,28.50
2024-05-09T11:24:19.091Z,28.04
2024-05-09T11:29:20.971Z,28.43
2024-05-09T11:34:22.861Z,28.05
2024-05-09T11:39:25.123Z,28.01
2024-05-09T11:44:27.306Z,28.64
2024-05-09T11:49:29.253Z,28.32
2024-05-09T11:54:31.238Z,28.50
2024-05-09T11:59:33.106Z,28.15
2024-05-09T12:04:35.066Z,27.85
2024-05-09T12:09:37.098Z,27.90
2024-05-09T12:14:39.188Z,28.29
2024-05-09T12:19:41.132Z,28.17
2024-05-09T12:24:42.980Z,28.35
2024-05-09T12:29:44.916Z,28.13
2024-05-09T12:34:46.807Z,27.85
2024-05-09T12:39:48.687Z,27.32
2024-05-09T12:44:50.527Z,26.92
2024-05-09T12:49:52.597Z,26.99
2024-05-09T12:54:54.915Z,26.89
2024-05-09T12:59:56.796Z,26.92
2024-05-09T13:04:58.795Z,26.50
2024-05-09T13:10:00.848Z,26.73
2024-05-09T13:15:02.721Z,26.09
2024-05-09T13:20:07.049Z,26.58
2024-05-09T13:25:12.860Z,25.95
2024-05-09T13:30:21.874Z,25.91
2024-05-09T13:35:32.356Z,25.80
2024-05-09T13:40:36.182Z,26.11
2024-05-09T13:45:38.617Z,25.46
2024-05-09T13:50:40.536Z,26.05
2024-05-09T13:55:42.410Z,25.76
2024-05-09T14:00:48.774Z,25.89
2024-05-09T14:05:52.169Z,25.84
2024-05-09T14:10:54.554Z,25.84
2024-05-09T14:15:56.715Z,25.70
2024-05-09T14:20:58.678Z,25.94
2024-05-09T14:26:00.496Z,25.93
2024-05-09T14:31:02.405Z,25.36
2024-05-09T14:36:04.495Z,26.06
2024-05-09T14:41:07.808Z,25.89
2024-05-09T14:46:10.244Z,25.68
2024-05-09T14:51:12.187Z,25.82
2024-05-09T14:56:14.980Z,25.76
2024-05-09T15:01:17.044Z,25.50
2024-05-09T15:06:19.426Z,25.79
2024-05-09T15:11:21.428Z,25.54
2024-05-09T15:16:24.052Z,25.77
2024-05-09T15:21:26.006Z,25.88
2024-05-09T15:26:28.422Z,25.81
2024-05-09T15:31:30.498Z,26.07
2024-05-09T15:36:32.977Z,26.40
2024-05-09T15:41:34.828Z,26.12
2024-05-09T15:46:37.741Z,26.16
2024-05-09T15:51:40.250Z,26.97
2024-05-09T15:56:47.225Z,26.68
2024-05-09T16:01:49.300Z,26.72
2024-05-09T16:06:51.807Z,26.57
2024-05-09T16:11:53.843Z,26.60
2024-05-09T16:16:56.503Z,26.46
2024-05-09T16:22:00.638Z,26.72
2024-05-09T16:27:03.302Z,26.91
2024-05-09T16:32:06.150Z,26.86
2024-05-09T16:37:10.703Z,26.89
2024-05-09T16:42:12.590Z,27.11
2024-05-09T16:47:18.119Z,26.70
2024-05-09T16:52:23.496Z,27.06
2024-05-09T16:57:25.950Z,27.03
2024-05-09T17:02:28.098Z,26.84
2024-05-09T17:07:30.602Z,27.18
2024-05-09T17:12:32.680Z,27.62
2024-05-09T17:17:35.149Z,27.28
2024-05-09T17:22:37.042Z,27.38
2024-05-09T17:27:39.172Z,27.76
2024-05-09T17:32:41.402Z,28.26
2024-05-09T17:37:43.414Z,27.99
2024-05-09T17:42:45.898Z,28.17
2024-05-09T17:47:48.052Z,28.16
2024-05-09T17:52:52.995Z,28.43
2024-05-09T17:57:55.255Z,28.71
2024-05-09T18:02:57.142Z,29.16
2024-05-09T18:07:59.616Z,29.31
2024-05-09T18:13:01.602Z,29.45
2024-05-09T18:18:04.433Z,29.50
2024-05-09T18:23:07.168Z,29.92
2024-05-09T18:28:10.816Z,29.74
2024-05-09T18:33:13.978Z,29.84
2024-05-09T18:38:18.915Z,30.23
2024-05-09T18:43:28.710Z,31.08
2024-05-09T18:48:37.120Z,31.31
2024-05-09T18:53:39.866Z,31.05
2024-05-09T18:58:43.707Z,31.15
2024-05-09T19:03:48.501Z,31.31
2024-05-09T19:08:53.710Z,31.48
2024-05-09T19:13:56.691Z,31.55
2024-05-09T19:19:00.782Z,31.82
2024-05-09T19:24:03.535Z,31.90
2024-05-09T19:29:06.957Z,32.37
2024-05-09T19:34:09.530Z,32.20
2024-05-09T19:39:12.170Z,32.45
2024-05-09T19:44:14.361Z,32.84
2024-05-09T19:49:16.900Z,32.64
2024-05-09T19:54:18.947Z,32.82
2024-05-09T19:59:21.345Z,32.92
2024-05-09T20:04:23.575Z,33.38
2024-05-09T20:09:26.174Z,33.26
2024-05-09T20:14:28.185Z,33.45
2024-05-09T20:19:30.992Z,33.82
2024-05-09T20:24:33.637Z,34.05
2024-05-09T20:29:35.558Z,34.38
2024-05-09T20:34:37.770Z,34.18
2024-05-09T20:39:40.259Z,34.31
2024-05-09T20:44:42.678Z,34.89
2024-05-09T20:49:46.434Z,34.27
2024-05-09T20:54:48.533Z,34.64
2024-05-09T20:59:50.402Z,34.67
2024-05-09T21:04:52.462Z,34.54
2024-05-09T21:09:57.342Z,35.30
2024-05-09T21:14:59.333Z,35.24
2024-05-09T21:20:01.193Z,35.54
2024-05-09T21:25:03.075Z,35.57
2024-05-09T21:30:07.776Z,35.75
2024-05-09T21:35:11.761Z,35.71
2024-05-09T21:40:17.170Z,35.97
2024-05-09T21:45:26.120Z,36.01
2024-05-09T21:50:35.816Z,36.65
2024-05-09T21:55:42.615Z,36.65
2024-05-09T22:00:46.492Z,36.79
2024-05-09T22:05:48.611Z,36.63
2024-05-09T22:15:53.016Z,37.28
2024-05-09T22:20:55.376Z,38.22
2024-05-09T22:25:57.229Z,38.23
2024-05-09T22:30:59.087Z,38.69
2024-05-09T22:36:00.932Z,39.39
2024-05-09T22:41:06.943Z,39.72
2024-05-09T22:46:08.936Z,40.42
2024-05-09T22:51:12.364Z,40.97
2024-05-09T22:56:15.031Z,41.28
2024-05-09T23:01:16.945Z,41.22
2024-05-09T23:06:19.316Z,41.98
2024-05-09T23:11:21.174Z,42.52
2024-05-09T23:16:23.200Z,42.76
2024-05-09T23:21:25.136Z,42.53
2024-05-09T23:26:26.983Z,42.13
2024-05-09T23:31:28.964Z,43.36
2024-05-09T23:36:31.228Z,43.26
2024-05-09T23:41:33.123Z,43.51
2024-05-09T23:46:35.397Z,43.81
2024-05-09T23:51:37.591Z,43.59
2024-05-09T23:56:39.459Z,43.73
